Time;durP1;ratioP1;P1;durP2;ratioP2;P2;SDS_P1;SDS_P2;PMS_P1;PMS_P2;Temp;Humidity;BMP_temperature;BMP_pressure;BME280_temperature;BME280_humidity;BME280_pressure;Samples;Min_cycle;Max_cycle;Signal;HPM_P1;HPM_P2
2021/06/23 06:04:04;;;;;;;10.63;3.02;;;;;;;23.03;67.83;98065.50;1877623;76;23288;-62
2021/06/23 06:06:31;;;;;;;10.53;3.10;;;;;;;23.00;67.73;98071.72;1836032;77;20833;-66
2021/06/23 06:08:58;;;;;;;8.90;2.85;;;;;;;23.05;67.68;98078.23;1836501;77;21197;-63
2021/06/23 06:11:26;;;;;;;8.23;3.05;;;;;;;23.13;67.69;98082.62;1833943;77;20916;-64
2021/06/23 06:13:53;;;;;;;12.25;3.17;;;;;;;23.24;67.56;98086.88;1843179;77;20909;-64
2021/06/23 06:16:19;;;;;;;9.68;3.10;;;;;;;23.40;67.14;98096.27;1833366;77;20978;-62
2021/06/23 06:18:47;;;;;;;20.77;3.70;;;;;;;23.55;66.87;98091.20;1807288;79;20980;-63
2021/06/23 06:21:15;;;;;;;12.70;3.08;;;;;;;23.72;66.67;98089.23;1807586;79;22331;-62
2021/06/23 06:23:42;;;;;;;9.28;2.90;;;;;;;23.89;66.54;98090.02;1807590;79;20883;-64
2021/06/23 06:26:09;;;;;;;11.38;3.10;;;;;;;24.07;65.56;98103.31;1808036;79;20906;-62
2021/06/23 06:28:38;;;;;;;23.20;3.50;;;;;;;24.20;65.17;98099.16;1807696;79;20958;-62
2021/06/23 06:31:06;;;;;;;10.75;3.00;;;;;;;24.31;65.08;98102.77;1807607;79;20965;-62
2021/06/23 06:33:33;;;;;;;14.20;3.30;;;;;;;24.45;64.80;98100.16;1814866;77;21105;-63
2021/06/23 06:36:00;;;;;;;13.98;2.95;;;;;;;24.58;64.59;98096.55;1847668;77;21380;-63
2021/06/23 06:38:28;;;;;;;13.70;3.12;;;;;;;24.74;64.26;98093.53;1831596;77;20988;-66
2021/06/23 06:40:55;;;;;;;10.90;2.90;;;;;;;24.88;64.07;98097.77;1833426;77;21054;-62
2021/06/23 06:43:22;;;;;;;11.43;2.83;;;;;;;24.97;63.27;98096.85;1847931;77;21356;-62
2021/06/23 06:45:51;;;;;;;12.28;2.87;;;;;;;25.05;63.17;98095.73;1839827;77;22227;-62
2021/06/23 06:48:21;;;;;;;8.70;2.80;;;;;;;25.12;62.88;98099.89;1817780;77;20957;-63
2021/06/23 06:50:49;;;;;;;14.35;3.00;;;;;;;25.20;62.54;98100.14;1840307;77;20908;-63
2021/06/23 06:53:16;;;;;;;15.90;2.90;;;;;;;25.23;62.11;98108.16;1845977;77;21000;-63
2021/06/23 06:55:44;;;;;;;10.30;3.05;;;;;;;25.22;61.66;98111.50;1847645;77;20831;-63
2021/06/23 06:58:10;;;;;;;15.18;3.30;;;;;;;25.15;61.73;98115.58;1846676;77;21057;-63
2021/06/23 07:00:38;;;;;;;11.38;2.85;;;;;;;25.10;61.79;98117.30;1846987;77;20917;-62
2021/06/23 07:03:06;;;;;;;9.98;2.55;;;;;;;25.06;61.83;98112.39;1833368;77;21068;-63
2021/06/23 07:05:34;;;;;;;13.98;2.98;;;;;;;25.05;62.27;98114.92;1819459;78;20942;-62
2021/06/23 07:08:00;;;;;;;13.22;3.17;;;;;;;25.07;62.06;98123.54;1814805;78;20868;-65
2021/06/23 07:10:27;;;;;;;10.90;2.85;;;;;;;25.14;62.43;98124.95;1808850;79;20986;-63
2021/06/23 07:12:54;;;;;;;14.30;3.30;;;;;;;25.26;62.55;98132.86;1808199;78;20982;-64
2021/06/23 07:15:21;;;;;;;10.30;3.00;;;;;;;25.38;62.36;98135.28;1819385;78;21593;-63
2021/06/23 07:17:51;;;;;;;12.60;3.42;;;;;;;25.49;62.34;98131.23;1806750;79;21048;-63
2021/06/23 07:20:16;;;;;;;9.13;3.20;;;;;;;25.56;61.71;98130.69;1765774;80;20931;-63
2021/06/23 07:22:43;;;;;;;13.70;3.10;;;;;;;25.63;61.86;98125.81;1806768;79;21088;-67
2021/06/23 07:25:12;;;;;;;8.93;3.08;;;;;;;25.71;61.29;98134.29;1806770;79;21607;-65
2021/06/23 07:27:39;;;;;;;9.78;3.00;;;;;;;25.79;61.40;98128.43;1797622;78;21521;-63
2021/06/23 07:30:07;;;;;;;12.73;3.20;;;;;;;25.91;61.31;98132.02;1788298;80;20978;-64
2021/06/23 07:32:48;;;;;;;14.50;3.50;;;;;;;26.02;61.00;98130.08;1788733;80;20903;-68
2021/06/23 07:37:59;;;;;;;15.65;3.55;;;;;;;26.22;60.95;98134.06;1798791;78;20974;-62
2021/06/23 07:40:43;;;;;;;20.90;3.37;;;;;;;26.22;60.95;98134.06;1799585;78;21113;-65
2021/06/23 07:42:56;;;;;;;12.13;3.25;;;;;;;26.24;60.72;98135.83;1783825;79;21050;-63
2021/06/23 07:45:23;;;;;;;17.48;3.67;;;;;;;26.36;61.42;98134.88;1799603;78;21071;-63
2021/06/23 07:47:50;;;;;;;12.45;3.65;;;;;;;26.52;61.77;98134.48;1803581;79;21263;-67
2021/06/23 07:50:17;;;;;;;11.70;2.90;;;;;;;26.67;61.29;98131.17;1806537;78;20993;-64
2021/06/23 08:01:26;;;;;;;14.10;3.05;;;;;;;27.16;58.05;98129.02;1779780;79;21120;-65
2021/06/23 08:11:37;;;;;;;10.60;3.22;;;;;;;27.49;55.56;98131.29;1779345;80;20916;-63
2021/06/23 08:14:05;;;;;;;13.50;3.45;;;;;;;27.55;55.67;98130.50;1748216;81;20925;-64
2021/06/23 08:16:33;;;;;;;15.75;3.45;;;;;;;27.58;55.77;98127.55;1763077;80;21007;-63
2021/06/23 08:19:00;;;;;;;18.80;4.08;;;;;;;27.63;56.05;98129.86;1778814;80;20929;-66
2021/06/23 08:21:27;;;;;;;18.35;4.03;;;;;;;27.70;55.88;98131.20;1778724;80;20971;-64
2021/06/23 08:23:57;;;;;;;22.32;4.20;;;;;;;27.77;55.48;98128.42;1779099;80;21093;-66
2021/06/23 08:26:25;;;;;;;17.17;4.03;;;;;;;27.85;55.47;98131.35;1779098;80;21129;-65
2021/06/23 08:28:53;;;;;;;17.80;4.62;;;;;;;27.95;55.61;98132.48;1746191;80;21003;-64
2021/06/23 08:31:20;;;;;;;20.32;4.62;;;;;;;28.06;55.82;98131.86;1712655;82;20938;-68
2021/06/23 08:33:47;;;;;;;17.55;4.05;;;;;;;28.15;56.01;98130.23;1792941;80;20962;-65
2021/06/23 08:36:14;;;;;;;22.20;4.28;;;;;;;28.25;55.21;98131.35;1773500;80;21366;-66
2021/06/23 08:38:42;;;;;;;22.13;4.60;;;;;;;28.33;55.24;98128.14;1792783;80;21125;-69
2021/06/23 08:41:09;;;;;;;27.05;4.58;;;;;;;28.44;54.72;98127.49;1792642;80;20989;-67
2021/06/23 08:43:38;;;;;;;23.85;4.33;;;;;;;28.53;54.20;98127.61;1793301;80;20934;-65
2021/06/23 08:46:05;;;;;;;30.60;5.15;;;;;;;28.61;53.46;98126.41;1792890;80;20977;-65
2021/06/23 08:48:32;;;;;;;23.30;5.28;;;;;;;28.68;52.83;98123.59;1792466;80;20847;-68
2021/06/23 08:51:06;;;;;;;28.00;5.05;;;;;;;28.73;52.68;98121.79;1793006;80;21186;-69
2021/06/23 08:53:34;;;;;;;;;;;;;;;28.80;53.01;98126.66;1795902;80;20926;-70
2021/06/23 08:56:02;;;;;;;27.07;5.40;;;;;;;28.90;52.46;98118.10;1792159;80;20083;-66
2021/06/23 08:58:29;;;;;;;23.07;4.80;;;;;;;28.99;52.52;98123.92;1791924;80;20981;-67
2021/06/23 09:00:56;;;;;;;24.20;5.15;;;;;;;29.08;52.68;98118.12;1791609;80;21076;-67
2021/06/23 09:03:23;;;;;;;22.87;5.25;;;;;;;29.15;52.17;98121.39;1791421;79;21070;-68
2021/06/23 09:05:56;;;;;;;20.15;4.72;;;;;;;29.23;51.78;98120.14;1791691;80;21508;-72
2021/06/23 09:08:37;;;;;;;21.42;5.03;;;;;;;29.32;52.27;98132.88;1791896;80;21069;-63
2021/06/23 09:11:15;;;;;;;20.48;4.83;;;;;;;29.41;51.66;98129.62;1792143;80;21521;-65
2021/06/23 09:13:44;;;;;;;30.12;6.28;;;;;;;29.49;51.24;98123.59;1793164;80;21350;-68
2021/06/23 09:16:11;;;;;;;15.90;4.60;;;;;;;29.56;51.20;98123.52;1803100;78;21721;-63
2021/06/23 09:18:42;;;;;;;28.80;5.92;;;;;;;29.62;50.97;98130.16;1820747;78;20964;-65
2021/06/23 09:21:23;;;;;;;24.23;5.72;;;;;;;29.68;50.88;98123.56;1835059;78;20952;-63
2021/06/23 09:23:58;;;;;;;23.27;5.40;;;;;;;29.72;50.39;98130.61;1838231;78;20932;-71
2021/06/23 09:26:27;;;;;;;21.42;4.97;;;;;;;29.78;50.68;98129.00;1838828;78;20837;-69
2021/06/23 09:29:14;;;;;;;33.98;6.05;;;;;;;29.86;51.45;98122.80;1838263;78;21105;-65
2021/06/23 09:31:57;;;;;;;32.85;5.70;;;;;;;29.95;51.11;98123.06;1837868;78;20990;-65
2021/06/23 09:34:30;;;;;;;22.58;5.70;;;;;;;30.06;50.16;98128.43;1837136;78;21042;-65
2021/06/23 09:36:57;;;;;;;26.07;5.60;;;;;;;30.17;49.60;98126.33;1836274;78;21308;-67
2021/06/23 09:39:28;;;;;;;27.67;5.47;;;;;;;30.24;48.39;98134.51;1830558;78;21026;-63
2021/06/23 09:41:55;;;;;;;22.82;5.15;;;;;;;30.19;48.05;98125.30;1809053;79;21264;-66
2021/06/23 09:44:23;;;;;;;33.25;5.50;;;;;;;30.15;48.92;98127.34;1808133;79;20914;-63
2021/06/23 09:46:51;;;;;;;17.67;4.53;;;;;;;30.21;48.04;98127.05;1808985;79;21005;-67
2021/06/23 09:49:24;;;;;;;22.60;5.20;;;;;;;30.30;47.99;98127.30;1809028;79;21345;-66
2021/06/23 09:51:59;;;;;;;24.30;5.25;;;;;;;30.40;46.66;98125.81;1809088;79;20998;-71
2021/06/23 09:54:30;;;;;;;27.80;5.20;;;;;;;30.44;46.62;98124.36;1809476;79;21877;-66
2021/06/23 09:57:12;;;;;;;33.42;5.85;;;;;;;30.52;46.97;98122.27;1809146;79;21486;-69
2021/06/23 09:59:42;;;;;;;26.50;5.60;;;;;;;30.59;46.40;98113.27;1811881;78;21068;-70
2021/06/23 10:02:31;;;;;;;33.18;6.22;;;;;;;30.67;47.10;98121.61;1816873;79;20878;-69
2021/06/23 10:05:00;;;;;;;31.15;5.90;;;;;;;30.73;48.38;98119.95;1816366;78;20964;-67
2021/06/23 10:07:48;;;;;;;27.42;6.08;;;;;;;30.82;47.45;98119.40;1817060;79;21036;-72
2021/06/23 10:10:22;;;;;;;31.85;5.65;;;;;;;30.83;48.12;98116.20;1817254;79;20981;-71
2021/06/23 10:12:51;;;;;;;27.02;6.30;;;;;;;30.92;46.12;98115.11;1819761;78;21526;-66
2021/06/23 10:15:20;;;;;;;29.02;5.83;;;;;;;30.97;45.68;98114.60;1830335;78;21491;-68
2021/06/23 10:17:47;;;;;;;28.80;5.85;;;;;;;31.00;46.08;98111.59;1830274;78;20889;-71
2021/06/23 10:20:15;;;;;;;29.42;6.40;;;;;;;31.04;46.95;98104.80;1827076;78;21118;-69
2021/06/23 10:22:44;;;;;;;30.45;6.17;;;;;;;31.13;47.65;98100.70;1816832;78;20924;-70
2021/06/23 10:25:13;;;;;;;36.33;6.42;;;;;;;31.20;47.21;98097.81;1802703;79;20900;-73
2021/06/23 10:27:43;;;;;;;30.08;6.05;;;;;;;31.29;47.02;98094.66;1802711;79;21381;-71
2021/06/23 10:30:12;;;;;;;26.90;5.95;;;;;;;31.38;47.04;98092.70;1801106;79;20967;-66
2021/06/23 10:32:40;;;;;;;24.20;5.72;;;;;;;31.47;46.08;98099.87;1802392;79;21519;-66
2021/06/23 10:35:08;;;;;;;23.80;4.62;;;;;;;31.52;44.79;98095.22;1801627;79;20952;-69
2021/06/23 10:37:38;;;;;;;24.92;4.67;;;;;;;31.55;44.44;98092.99;1802483;79;20920;-67
2021/06/23 10:40:07;;;;;;;19.17;4.60;;;;;;;31.58;43.98;98090.77;1801912;79;21491;-68
2021/06/23 10:42:36;;;;;;;20.02;4.87;;;;;;;31.64;42.47;98091.22;1802652;79;21391;-68
2021/06/23 10:45:07;;;;;;;20.95;4.47;;;;;;;31.66;42.32;98096.31;1819232;78;21348;-69
2021/06/23 10:47:41;;;;;;;25.23;5.10;;;;;;;31.70;42.42;98094.27;1832857;78;21430;-75
2021/06/23 10:50:30;;;;;;;20.02;3.95;;;;;;;31.77;41.53;98093.49;1823776;78;20973;-68
2021/06/23 10:52:57;;;;;;;18.40;3.90;;;;;;;31.79;40.96;98088.94;1802711;79;20894;-68
2021/06/23 10:55:30;;;;;;;22.58;3.60;;;;;;;31.81;41.86;98090.66;1801810;79;21503;-70
2021/06/23 10:58:07;;;;;;;29.85;4.08;;;;;;;31.85;38.39;98085.82;1814006;78;21474;-70
2021/06/23 11:00:36;;;;;;;20.43;3.83;;;;;;;31.89;37.84;98101.78;1809002;78;20975;-68
2021/06/23 11:03:09;;;;;;;18.10;3.77;;;;;;;31.93;39.10;98101.09;1827932;78;20905;-66
2021/06/23 11:05:51;;;;;;;27.10;4.47;;;;;;;31.98;39.67;98100.61;1838948;77;21031;-68
2021/06/23 11:08:34;;;;;;;17.55;4.08;;;;;;;32.04;39.41;98093.34;1806036;78;20957;-67
2021/06/23 11:11:07;;;;;;;23.27;4.20;;;;;;;32.06;39.60;98099.23;1795050;80;21504;-71
2021/06/23 11:13:37;;;;;;;29.80;4.42;;;;;;;32.13;39.40;98096.90;1794770;79;21065;-67
2021/06/23 11:16:06;;;;;;;18.55;4.97;;;;;;;32.18;39.04;98099.95;1795671;79;21407;-68
2021/06/23 11:18:41;;;;;;;19.07;4.12;;;;;;;32.20;39.18;98096.73;1826674;78;20888;-66
2021/06/23 11:21:19;;;;;;;15.45;3.90;;;;;;;32.20;39.11;98098.91;1841823;77;21058;-66
2021/06/23 11:23:58;;;;;;;23.25;3.92;;;;;;;32.26;39.81;98101.36;1848210;77;21019;-68
2021/06/23 11:26:37;;;;;;;19.35;4.33;;;;;;;32.32;38.97;98101.60;1858394;77;21371;-68
2021/06/23 11:29:17;;;;;;;19.17;4.10;;;;;;;32.36;39.07;98093.38;1839962;77;21423;-67
2021/06/23 11:31:50;;;;;;;31.37;5.10;;;;;;;32.49;37.95;98095.47;1817393;78;21415;-68
2021/06/23 11:34:51;;;;;;;24.12;3.67;;;;;;;32.59;37.47;98094.47;1830221;77;21111;-67
2021/06/23 11:37:12;;;;;;;18.80;4.00;;;;;;;32.68;36.65;98091.86;1788625;79;21140;-69
2021/06/23 11:39:40;;;;;;;20.20;3.92;;;;;;;32.83;37.38;98097.23;1793048;77;21045;-69
2021/06/23 11:42:07;;;;;;;16.45;4.20;;;;;;;33.02;37.31;98090.19;1809532;79;21034;-70
2021/06/23 11:44:36;;;;;;;19.95;4.05;;;;;;;33.22;36.70;98090.66;1809546;79;21026;-68
2021/06/23 11:47:03;;;;;;;20.40;3.92;;;;;;;33.40;36.15;98095.89;1810572;79;20864;-67
2021/06/23 11:49:31;;;;;;;20.90;4.03;;;;;;;33.55;36.31;98088.77;1811772;77;21410;-65
2021/06/23 11:51:59;;;;;;;17.45;3.72;;;;;;;33.77;37.16;98094.48;1791708;79;20972;-68
2021/06/23 11:54:26;;;;;;;19.37;3.65;;;;;;;33.98;36.80;98091.67;1791271;79;20910;-66
2021/06/23 11:56:54;;;;;;;21.70;4.33;;;;;;;34.10;35.96;98087.55;1793241;78;20929;-65
2021/06/23 11:59:21;;;;;;;20.90;3.85;;;;;;;34.20;35.43;98088.45;1839926;78;20877;-63
2021/06/23 12:01:49;;;;;;;19.57;4.10;;;;;;;34.26;35.37;98088.04;1769934;80;21187;-64
2021/06/23 12:04:17;;;;;;;14.60;3.72;;;;;;;34.35;35.61;98089.53;1764495;81;21430;-65
2021/06/23 12:06:44;;;;;;;20.77;3.72;;;;;;;34.49;33.58;98086.90;1748502;82;20932;-69
2021/06/23 12:09:11;;;;;;;18.57;3.35;;;;;;;34.64;34.33;98089.42;1748493;81;21420;-69
2021/06/23 12:11:39;;;;;;;18.92;3.22;;;;;;;34.84;33.50;98087.92;1748051;82;20908;-65
2021/06/23 12:14:06;;;;;;;15.78;3.85;;;;;;;35.00;33.97;98086.37;1748510;82;21132;-66
2021/06/23 12:16:33;;;;;;;24.47;3.95;;;;;;;35.13;33.37;98079.41;1747360;81;20932;-66
2021/06/23 12:19:00;;;;;;;18.02;4.03;;;;;;;35.23;32.40;98084.44;1746781;81;21494;-66
2021/06/23 12:21:29;;;;;;;17.82;3.67;;;;;;;35.30;33.56;98086.96;1746861;81;21034;-65
2021/06/23 12:23:56;;;;;;;22.90;3.90;;;;;;;35.34;33.52;98083.43;1746978;81;21133;-65
2021/06/23 12:26:23;;;;;;;16.05;4.03;;;;;;;35.47;32.29;98089.73;1746932;81;21132;-68
2021/06/23 12:28:50;;;;;;;22.75;4.28;;;;;;;35.51;32.37;98090.39;1746990;81;21026;-71
2021/06/23 12:31:18;;;;;;;16.23;3.62;;;;;;;35.60;31.96;98096.02;1747173;81;20944;-69
2021/06/23 12:33:45;;;;;;;21.82;5.00;;;;;;;35.54;33.48;98090.25;1748283;80;20951;-67
2021/06/23 12:36:13;;;;;;;22.80;4.62;;;;;;;35.63;33.28;98093.13;1811490;79;20903;-70
2021/06/23 12:38:42;;;;;;;21.35;3.60;;;;;;;35.67;32.59;98092.97;1819221;78;21909;-67
2021/06/23 12:41:09;;;;;;;20.12;4.05;;;;;;;35.71;33.01;98101.36;1818103;78;20920;-66
2021/06/23 12:43:37;;;;;;;25.55;4.03;;;;;;;35.80;32.23;98089.51;1816187;78;20880;-67
2021/06/23 12:46:04;;;;;;;18.80;4.00;;;;;;;35.90;32.15;98088.91;1815152;78;21002;-68
2021/06/23 12:48:31;;;;;;;24.92;4.22;;;;;;;35.98;32.86;98092.41;1839790;78;21121;-67
2021/06/23 12:50:59;;;;;;;21.55;3.65;;;;;;;36.06;31.36;98081.13;1829301;78;21169;-65
2021/06/23 12:53:25;;;;;;;17.48;3.90;;;;;;;36.12;31.79;98086.28;1806676;79;21109;-65
2021/06/23 12:55:52;;;;;;;18.77;3.50;;;;;;;36.15;31.98;98087.37;1806920;79;20952;-66
2021/06/23 12:58:20;;;;;;;24.15;4.12;;;;;;;36.22;32.04;98087.10;1805634;79;21334;-66
2021/06/23 13:00:49;;;;;;;21.25;3.40;;;;;;;36.35;32.50;98078.78;1806324;79;21080;-62
2021/06/23 13:03:19;;;;;;;19.95;4.45;;;;;;;36.49;32.95;98082.24;1807034;78;21097;-65
2021/06/23 13:05:45;;;;;;;21.93;4.53;;;;;;;36.64;32.22;98087.41;1801991;79;21041;-66
2021/06/23 13:08:11;;;;;;;16.75;4.00;;;;;;;36.73;31.15;98086.02;1801483;79;21537;-64
2021/06/23 13:10:38;;;;;;;22.50;3.77;;;;;;;36.70;31.29;98089.73;1802727;79;20928;-66
2021/06/23 13:13:05;;;;;;;20.02;3.70;;;;;;;36.73;30.99;98088.81;1802576;79;21431;-65
2021/06/23 13:15:32;;;;;;;22.15;3.25;;;;;;;36.78;32.32;98088.21;1802835;79;21828;-66
2021/06/23 13:17:58;;;;;;;19.25;3.60;;;;;;;36.93;30.71;98091.99;1802958;79;20963;-65
2021/06/23 13:20:25;;;;;;;19.60;3.58;;;;;;;37.08;30.82;98095.70;1802639;79;20880;-64
2021/06/23 13:22:53;;;;;;;22.20;3.37;;;;;;;37.21;29.46;98085.80;1802719;79;20897;-65
2021/06/23 13:25:21;;;;;;;19.65;3.10;;;;;;;37.29;29.84;98087.80;1802710;79;20928;-65
2021/06/23 13:27:48;;;;;;;17.70;3.45;;;;;;;37.42;28.23;98087.06;1802481;79;21122;-64
2021/06/23 13:30:16;;;;;;;19.85;3.30;;;;;;;37.47;28.64;98090.63;1802663;79;20912;-67
2021/06/23 13:32:43;;;;;;;14.95;3.15;;;;;;;37.49;28.00;98090.93;1802856;79;21412;-67
2021/06/23 13:35:12;;;;;;;15.30;3.42;;;;;;;37.55;28.17;98089.66;1802702;79;20971;-66
2021/06/23 13:37:38;;;;;;;22.75;3.40;;;;;;;37.65;29.30;98085.00;1802743;79;21474;-68
2021/06/23 13:40:07;;;;;;;15.32;3.60;;;;;;;37.81;28.17;98087.28;1802687;79;21010;-65
2021/06/23 13:42:34;;;;;;;11.65;3.20;;;;;;;37.87;28.60;98090.42;1803014;79;21389;-64
2021/06/23 13:45:01;;;;;;;18.62;2.80;;;;;;;37.95;28.98;98083.23;1802768;79;21373;-65
2021/06/23 13:47:29;;;;;;;13.45;3.37;;;;;;;38.04;28.65;98083.84;1802513;79;20979;-66
2021/06/23 13:49:57;;;;;;;19.55;3.92;;;;;;;38.11;28.57;98077.91;1802825;79;20967;-65
2021/06/23 13:52:25;;;;;;;14.95;3.20;;;;;;;38.13;29.07;98081.01;1802616;79;21115;-66
2021/06/23 13:54:52;;;;;;;17.00;3.85;;;;;;;38.12;29.74;98080.84;1802701;79;20869;-65
2021/06/23 13:57:19;;;;;;;14.35;3.40;;;;;;;38.18;30.17;98078.33;1802732;79;20967;-65
2021/06/23 13:59:46;;;;;;;14.85;3.00;;;;;;;38.21;29.02;98083.59;1802962;79;20924;-66
2021/06/23 14:02:12;;;;;;;13.80;3.20;;;;;;;38.21;28.91;98088.58;1802742;79;20873;-65
2021/06/23 14:04:39;;;;;;;16.97;3.22;;;;;;;38.33;28.37;98082.64;1804166;79;21081;-65
2021/06/23 14:07:08;;;;;;;14.35;3.20;;;;;;;38.41;27.97;98082.46;1808308;79;21027;-66
2021/06/23 14:09:37;;;;;;;11.25;2.60;;;;;;;38.51;28.33;98078.34;1808363;79;20995;-65
2021/06/23 14:12:07;;;;;;;15.18;2.90;;;;;;;38.58;27.98;98077.99;1808269;79;20924;-65
2021/06/23 14:14:35;;;;;;;15.85;3.10;;;;;;;38.64;27.17;98083.72;1808623;79;21411;-65
2021/06/23 14:17:02;;;;;;;11.22;3.20;;;;;;;38.66;27.26;98082.00;1808479;79;21368;-65
2021/06/23 14:19:29;;;;;;;10.08;2.65;;;;;;;38.69;26.82;98086.66;1808182;79;20967;-65
2021/06/23 14:21:56;;;;;;;12.05;2.72;;;;;;;38.64;26.63;98087.30;1808369;79;21007;-64
2021/06/23 14:24:23;;;;;;;10.00;2.17;;;;;;;38.76;25.70;98080.73;1808398;79;20856;-65
2021/06/23 14:26:51;;;;;;;17.15;2.65;;;;;;;38.92;25.73;98085.12;1808603;79;20964;-67
2021/06/23 14:29:18;;;;;;;7.67;1.80;;;;;;;39.07;25.49;98091.55;1808437;79;21133;-67
2021/06/23 14:31:45;;;;;;;8.65;1.87;;;;;;;39.14;24.84;98079.20;1808694;79;21352;-65
2021/06/23 14:34:12;;;;;;;11.93;2.27;;;;;;;39.18;24.20;98079.81;1808544;79;20876;-65
2021/06/23 14:36:40;;;;;;;11.20;2.00;;;;;;;39.24;23.81;98083.52;1808512;79;21404;-65
2021/06/23 14:39:07;;;;;;;8.08;1.80;;;;;;;39.31;24.25;98085.94;1808545;79;20987;-65
2021/06/23 14:41:34;;;;;;;9.73;2.42;;;;;;;39.35;22.98;98082.31;1808653;79;21873;-64
2021/06/23 14:44:01;;;;;;;11.12;2.05;;;;;;;39.30;23.19;98081.58;1808431;79;20872;-66
2021/06/23 14:46:28;;;;;;;10.95;1.85;;;;;;;39.30;23.80;98080.18;1808643;79;20967;-66
2021/06/23 14:48:56;;;;;;;14.90;2.08;;;;;;;39.36;23.53;98086.68;1808585;79;21498;-65
2021/06/23 14:51:23;;;;;;;11.90;2.27;;;;;;;39.43;23.96;98090.50;1808441;79;20927;-64
2021/06/23 14:53:50;;;;;;;8.33;1.90;;;;;;;39.47;24.54;98087.66;1808400;79;21036;-64
2021/06/23 14:56:17;;;;;;;8.25;2.35;;;;;;;39.48;24.17;98087.00;1808457;79;20953;-64
2021/06/23 14:58:45;;;;;;;12.60;2.22;;;;;;;39.35;23.30;98078.11;1808507;79;20877;-64
2021/06/23 15:01:13;;;;;;;11.28;1.80;;;;;;;39.14;23.44;98082.00;1808788;79;20884;-65
2021/06/23 15:03:40;;;;;;;9.30;2.02;;;;;;;38.94;23.46;98080.59;1808536;79;20944;-66
2021/06/23 15:06:08;;;;;;;6.20;1.98;;;;;;;38.70;23.33;98080.44;1804521;78;21037;-66
2021/06/23 15:08:36;;;;;;;9.88;2.05;;;;;;;38.59;23.81;98079.55;1802796;79;20833;-66
2021/06/23 15:11:07;;;;;;;12.58;1.87;;;;;;;38.74;24.65;98083.85;1802808;79;20912;-65
2021/06/23 15:13:35;;;;;;;8.63;1.72;;;;;;;38.92;23.45;98080.30;1802838;79;20905;-64
2021/06/23 15:16:03;;;;;;;15.32;2.12;;;;;;;39.12;23.24;98082.49;1802857;79;20877;-65
2021/06/23 15:18:30;;;;;;;7.25;1.77;;;;;;;39.28;22.67;98079.27;1802828;79;21467;-64
2021/06/23 15:20:57;;;;;;;8.05;1.90;;;;;;;39.38;22.51;98082.77;1802821;79;21483;-65
2021/06/23 15:23:24;;;;;;;12.05;1.75;;;;;;;39.44;22.96;98085.03;1802764;79;20988;-66
2021/06/23 15:25:51;;;;;;;9.18;1.77;;;;;;;39.51;22.54;98081.23;1803053;79;20853;-66
2021/06/23 15:28:18;;;;;;;14.25;2.42;;;;;;;39.58;23.11;98082.87;1802720;79;20984;-66
2021/06/23 15:30:46;;;;;;;11.73;1.75;;;;;;;39.62;22.71;98089.08;1803103;79;21092;-66
2021/06/23 15:33:13;;;;;;;7.53;1.55;;;;;;;39.61;21.73;98086.14;1803129;79;21376;-65
2021/06/23 15:35:40;;;;;;;10.48;2.35;;;;;;;39.62;21.78;98087.67;1802805;79;20987;-66
2021/06/23 15:38:09;;;;;;;9.08;1.90;;;;;;;39.57;21.68;98092.55;1802906;79;21455;-65
2021/06/23 15:40:45;;;;;;;10.38;1.92;;;;;;;39.37;21.86;98089.61;1802929;79;21539;-66
2021/06/23 15:43:19;;;;;;;14.73;2.00;;;;;;;39.13;22.38;98089.63;1802849;79;21787;-65
2021/06/23 15:45:53;;;;;;;12.58;2.17;;;;;;;38.84;22.70;98081.91;1802728;79;21506;-65
2021/06/23 15:48:21;;;;;;;11.70;1.98;;;;;;;38.49;23.36;98090.64;1802722;79;20916;-65
2021/06/23 15:50:49;;;;;;;11.00;2.22;;;;;;;38.12;24.33;98087.22;1802889;79;20968;-66
2021/06/23 15:53:16;;;;;;;10.80;2.12;;;;;;;37.72;24.82;98084.51;1802829;79;21023;-64
2021/06/23 15:55:44;;;;;;;11.83;2.05;;;;;;;37.33;25.60;98087.04;1802911;79;21930;-65
2021/06/23 15:58:32;;;;;;;9.10;1.95;;;;;;;36.97;25.52;98091.22;1802639;79;20911;-65
2021/06/23 16:01:00;;;;;;;11.18;2.00;;;;;;;36.57;26.39;98091.88;1802807;79;20922;-65
2021/06/23 16:03:27;;;;;;;10.53;1.92;;;;;;;36.20;26.48;98095.91;1803126;79;20939;-65
2021/06/23 16:05:56;;;;;;;8.33;1.70;;;;;;;35.89;26.98;98095.13;1805554;79;21383;-65
2021/06/23 16:08:23;;;;;;;11.68;2.25;;;;;;;35.59;27.08;98091.70;1808644;79;21046;-65
2021/06/23 16:10:51;;;;;;;14.40;2.40;;;;;;;35.35;28.23;98090.56;1808486;79;20836;-66
2021/06/23 16:13:19;;;;;;;11.33;2.05;;;;;;;35.11;29.16;98097.78;1808457;79;20912;-66
2021/06/23 16:15:46;;;;;;;12.15;2.10;;;;;;;34.87;29.70;98104.33;1808436;79;20955;-66
2021/06/23 16:18:14;;;;;;;11.15;1.77;;;;;;;34.69;30.87;98097.99;1808778;78;20845;-66
2021/06/23 16:20:44;;;;;;;13.65;2.00;;;;;;;34.52;30.61;98100.70;1808426;79;20849;-66
2021/06/23 16:23:15;;;;;;;7.72;2.12;;;;;;;34.33;31.73;98101.11;1808596;79;20876;-65
2021/06/23 16:25:42;;;;;;;7.87;1.80;;;;;;;34.04;33.16;98101.03;1808425;79;20872;-65
2021/06/23 16:28:09;;;;;;;13.60;2.10;;;;;;;33.68;33.43;98106.22;1808723;79;20936;-67
2021/06/23 16:30:38;;;;;;;15.72;2.00;;;;;;;33.47;34.75;98110.20;1808375;79;20931;-66
